createdAt,value
2022-10-25T00:01:54.907Z,0.67
2022-10-25T00:05:19.349Z,0.80
2022-10-25T00:08:47.176Z,0.87
2022-10-25T00:12:10.763Z,0.73
2022-10-25T00:15:35.724Z,0.70
2022-10-25T00:18:59.205Z,0.70
2022-10-25T00:22:22.656Z,0.70
2022-10-25T00:25:46.119Z,0.70
2022-10-25T00:29:11.523Z,0.70
2022-10-25T00:32:37.007Z,0.80
2022-10-25T00:36:06.476Z,0.70
2022-10-25T00:39:30.016Z,1.10
2022-10-25T00:42:53.420Z,0.70
2022-10-25T00:46:25.618Z,0.67
2022-10-25T00:50:00.955Z,0.80
2022-10-25T00:53:32.374Z,0.80
2022-10-25T00:57:00.679Z,0.87
2022-10-25T01:00:24.168Z,0.70
2022-10-25T01:03:52.155Z,0.80
2022-10-25T01:07:17.072Z,0.80
2022-10-25T01:10:41.140Z,0.70
2022-10-25T01:14:05.640Z,1.00
2022-10-25T01:17:43.492Z,0.93
2022-10-25T01:21:39.862Z,0.87
2022-10-25T01:25:45.139Z,1.00
2022-10-25T01:29:49.019Z,0.93
2022-10-25T01:33:23.677Z,0.80
2022-10-25T01:36:59.238Z,0.83
2022-10-25T01:40:31.067Z,1.03
2022-10-25T01:44:10.708Z,0.80
2022-10-25T01:47:42.708Z,0.80
2022-10-25T01:51:13.511Z,0.80
2022-10-25T01:54:37.230Z,0.90
2022-10-25T01:58:14.908Z,0.70
2022-10-25T02:01:58.923Z,0.80
2022-10-25T02:05:30.417Z,0.80
2022-10-25T02:09:06.944Z,0.90
2022-10-25T02:12:37.819Z,0.90
2022-10-25T02:16:07.943Z,0.80
2022-10-25T02:19:36.623Z,0.90
2022-10-25T02:23:04.176Z,0.87
2022-10-25T02:26:29.455Z,0.90
2022-10-25T02:29:54.972Z,1.00
2022-10-25T02:33:18.619Z,0.90
2022-10-25T02:36:42.066Z,1.03
2022-10-25T02:40:06.559Z,0.80
2022-10-25T02:43:31.353Z,1.00
2022-10-25T02:46:54.927Z,1.10
2022-10-25T02:50:18.578Z,0.80
2022-10-25T02:53:42.119Z,0.83
2022-10-25T02:57:05.628Z,0.90
2022-10-25T03:00:30.496Z,1.00
2022-10-25T03:03:54.006Z,0.90
2022-10-25T03:07:17.405Z,0.90
2022-10-25T03:10:40.908Z,0.80
2022-10-25T03:14:04.370Z,0.90
2022-10-25T03:17:29.204Z,0.90
2022-10-25T03:20:52.882Z,0.90
2022-10-25T03:24:16.548Z,0.70
2022-10-25T03:27:39.998Z,0.90
2022-10-25T03:31:03.924Z,1.10
2022-10-25T03:34:28.976Z,0.93
2022-10-25T03:37:54.018Z,0.90
2022-10-25T03:41:17.464Z,0.97
2022-10-25T03:44:40.939Z,1.00
2022-10-25T03:48:04.473Z,0.90
2022-10-25T03:51:29.267Z,1.00
2022-10-25T03:54:52.695Z,1.13
2022-10-25T03:58:16.276Z,0.97
2022-10-25T04:01:39.862Z,1.00
2022-10-25T04:05:03.476Z,1.00
2022-10-25T04:08:28.324Z,1.00
2022-10-25T04:11:51.772Z,1.10
2022-10-25T04:15:16.288Z,1.10
2022-10-25T04:18:39.736Z,0.80
2022-10-25T04:22:03.180Z,0.90
2022-10-25T04:25:30.372Z,1.00
2022-10-25T04:28:56.459Z,0.80
2022-10-25T04:35:56.361Z,1.10
2022-10-25T04:39:19.876Z,1.17
2022-10-25T04:42:44.913Z,0.90
2022-10-25T04:46:08.670Z,1.10
2022-10-25T04:49:32.108Z,1.00
2022-10-25T04:52:55.757Z,1.13
2022-10-25T04:56:19.157Z,1.20
2022-10-25T04:59:44.285Z,0.90
2022-10-25T05:03:10.895Z,1.10
2022-10-25T05:06:37.115Z,1.00
2022-10-25T05:10:00.567Z,0.93
2022-10-25T05:13:23.999Z,0.90
2022-10-25T05:16:48.788Z,1.00
2022-10-25T05:20:12.452Z,1.00
2022-10-25T05:23:36.397Z,1.03
2022-10-25T05:26:59.820Z,1.40
2022-10-25T05:30:23.444Z,1.10
2022-10-25T05:33:51.493Z,1.40
2022-10-25T05:37:14.973Z,1.30
2022-10-25T05:40:38.821Z,1.30
2022-10-25T05:44:02.262Z,1.20
2022-10-25T05:47:25.712Z,1.17
2022-10-25T05:50:53.497Z,1.80
2022-10-25T05:54:23.434Z,1.40
2022-10-25T05:57:52.511Z,1.20
2022-10-25T06:01:19.181Z,1.33
2022-10-25T06:04:42.718Z,1.20
2022-10-25T06:08:07.775Z,1.13
2022-10-25T06:11:31.712Z,1.00
2022-10-25T06:14:55.628Z,1.07
2022-10-25T06:18:19.211Z,1.17
2022-10-25T06:21:42.667Z,1.03
2022-10-25T06:25:09.317Z,1.40
2022-10-25T06:28:34.152Z,1.00
2022-10-25T06:31:57.657Z,1.00
2022-10-25T06:35:21.292Z,0.97
2022-10-25T06:38:45.787Z,1.00
2022-10-25T06:42:10.560Z,0.90
2022-10-25T06:45:34.525Z,1.10
2022-10-25T06:48:59.809Z,1.13
2022-10-25T06:52:23.432Z,0.90
2022-10-25T06:55:49.445Z,1.00
2022-10-25T06:59:14.384Z,1.37
2022-10-25T07:02:37.804Z,1.33
2022-10-25T07:06:02.199Z,0.90
2022-10-25T07:09:26.993Z,1.00
2022-10-25T07:12:50.403Z,1.00
2022-10-25T07:16:19.057Z,1.23
2022-10-25T07:19:42.491Z,1.20
2022-10-25T07:23:08.783Z,1.10
2022-10-25T07:26:35.460Z,1.17
2022-10-25T07:29:58.861Z,1.20
2022-10-25T07:33:23.651Z,1.17
2022-10-25T07:36:47.131Z,1.20
2022-10-25T07:40:11.849Z,1.50
2022-10-25T07:43:35.773Z,1.10
2022-10-25T07:46:59.233Z,1.00
2022-10-25T07:50:24.085Z,1.10
2022-10-25T07:53:47.842Z,1.10
2022-10-25T07:57:11.792Z,1.10
2022-10-25T08:00:37.357Z,1.50
2022-10-25T08:04:00.793Z,1.10
2022-10-25T08:07:25.750Z,0.90
2022-10-25T08:10:49.290Z,1.10
2022-10-25T08:14:12.867Z,1.00
2022-10-25T08:17:36.357Z,1.00
2022-10-25T08:21:03.620Z,0.70
2022-10-25T08:24:28.922Z,0.93
2022-10-25T08:27:52.525Z,1.10
2022-10-25T08:31:16.008Z,0.80
2022-10-25T08:34:39.465Z,0.90
2022-10-25T08:38:05.753Z,0.80
2022-10-25T08:41:45.532Z,0.90
2022-10-25T08:45:19.961Z,0.90
2022-10-25T08:48:50.055Z,0.93
2022-10-25T08:52:23.115Z,0.93
2022-10-25T08:56:05.171Z,0.90
2022-10-25T08:59:40.788Z,0.77
2022-10-25T09:03:05.999Z,0.90
2022-10-25T09:06:38.052Z,0.80
2022-10-25T09:10:16.686Z,1.10
2022-10-25T09:13:51.880Z,0.90
2022-10-25T09:17:21.236Z,0.90
2022-10-25T09:20:51.701Z,0.90
2022-10-25T09:24:24.654Z,0.90
2022-10-25T09:28:00.458Z,0.77
2022-10-25T09:31:26.273Z,0.93
2022-10-25T09:34:54.344Z,1.00
2022-10-25T09:38:24.544Z,0.93
2022-10-25T09:41:52.667Z,1.10
2022-10-25T09:45:24.184Z,0.90
2022-10-25T09:48:56.427Z,0.83
2022-10-25T09:52:31.071Z,0.70
2022-10-25T09:55:56.634Z,0.83
2022-10-25T09:59:20.292Z,0.90
2022-10-25T10:02:43.961Z,0.90
2022-10-25T10:06:20.994Z,0.90
2022-10-25T10:09:48.089Z,0.87
2022-10-25T10:13:21.148Z,0.90
2022-10-25T10:16:49.113Z,0.80
2022-10-25T10:20:16.289Z,0.90
2022-10-25T10:23:51.420Z,1.03
2022-10-25T10:27:29.790Z,1.20
2022-10-25T10:30:57.884Z,0.93
2022-10-25T10:34:27.515Z,0.90
2022-10-25T10:37:50.952Z,1.37
2022-10-25T10:41:16.816Z,1.00
2022-10-25T10:44:41.723Z,0.80
2022-10-25T10:48:05.850Z,0.87
2022-10-25T10:51:44.638Z,1.10
2022-10-25T10:55:19.525Z,0.80
2022-10-25T10:58:53.466Z,0.93
2022-10-25T11:02:28.755Z,0.80
2022-10-25T11:05:55.397Z,0.90
2022-10-25T11:09:25.504Z,0.80
2022-10-25T11:13:08.327Z,0.80
2022-10-25T11:16:56.707Z,0.80
2022-10-25T11:20:34.321Z,0.80
2022-10-25T11:24:10.885Z,0.80
2022-10-25T11:27:55.409Z,0.90
2022-10-25T11:31:36.528Z,0.70
2022-10-25T11:35:11.058Z,1.03
2022-10-25T11:38:55.141Z,0.90
2022-10-25T11:42:50.035Z,0.80
2022-10-25T11:46:27.079Z,0.80
2022-10-25T11:50:04.357Z,0.70
2022-10-25T11:53:53.042Z,0.93
2022-10-25T11:57:36.549Z,0.77
2022-10-25T12:01:20.672Z,1.70
2022-10-25T12:05:04.335Z,0.80
2022-10-25T12:08:38.416Z,0.90
2022-10-25T12:12:07.529Z,0.80
2022-10-25T12:15:39.816Z,1.00
2022-10-25T12:19:12.257Z,0.80
2022-10-25T12:22:43.219Z,0.90
2022-10-25T12:26:12.138Z,0.90
2022-10-25T12:29:42.854Z,0.90
2022-10-25T12:33:21.843Z,0.80
2022-10-25T12:36:50.263Z,1.43
2022-10-25T12:40:21.416Z,0.90
2022-10-25T12:44:01.925Z,1.17
2022-10-25T12:47:54.904Z,0.80
2022-10-25T12:51:39.266Z,0.80
2022-10-25T12:55:49.024Z,0.90
2022-10-25T12:59:38.354Z,1.10
2022-10-25T13:03:49.450Z,1.10
2022-10-25T13:07:15.428Z,1.00
2022-10-25T13:10:58.655Z,0.90
2022-10-25T13:14:30.761Z,1.03
2022-10-25T13:18:07.767Z,0.83
2022-10-25T13:22:11.702Z,0.90
2022-10-25T13:26:08.144Z,0.90
2022-10-25T13:30:37.716Z,0.90
2022-10-25T13:34:36.566Z,1.17
2022-10-25T13:38:09.431Z,0.90
2022-10-25T13:41:45.540Z,0.87
2022-10-25T13:45:22.705Z,0.80
2022-10-25T13:48:46.416Z,1.00
2022-10-25T13:52:25.536Z,0.80
2022-10-25T13:56:06.052Z,1.20
2022-10-25T14:00:02.945Z,0.80
2022-10-25T14:03:48.423Z,1.07
2022-10-25T14:07:48.448Z,1.00
2022-10-25T14:11:19.641Z,0.90
2022-10-25T14:15:05.497Z,0.90
2022-10-25T14:18:37.669Z,0.93
2022-10-25T14:22:05.211Z,0.80
2022-10-25T14:25:36.660Z,0.87
2022-10-25T14:29:16.244Z,1.63
2022-10-25T14:32:39.859Z,1.30
2022-10-25T14:36:26.141Z,0.90
2022-10-25T14:39:53.840Z,1.00
2022-10-25T14:43:26.856Z,0.90
2022-10-25T14:46:52.359Z,1.03
2022-10-25T14:50:16.829Z,0.90
2022-10-25T14:53:51.124Z,1.00
2022-10-25T14:57:17.468Z,0.80
2022-10-25T15:00:41.391Z,1.03
2022-10-25T15:04:06.296Z,0.80
2022-10-25T15:07:33.889Z,1.03
2022-10-25T15:11:04.258Z,0.80
2022-10-25T15:14:32.100Z,1.00
2022-10-25T15:17:56.560Z,0.90
2022-10-25T15:21:21.433Z,0.93
2022-10-25T15:24:48.680Z,1.00
2022-10-25T15:28:15.249Z,0.83
2022-10-25T15:31:44.840Z,0.90
2022-10-25T15:35:26.386Z,1.10
2022-10-25T15:39:07.134Z,1.10
2022-10-25T15:42:31.662Z,1.10
2022-10-25T15:45:56.384Z,0.90
2022-10-25T15:49:20.565Z,1.00
2022-10-25T15:52:44.598Z,1.03
2022-10-25T15:56:13.203Z,0.93
2022-10-25T15:59:36.665Z,0.87
2022-10-25T16:03:00.654Z,1.00
2022-10-25T16:06:24.593Z,0.87
2022-10-25T16:09:48.192Z,1.03
2022-10-25T16:13:18.537Z,1.20
2022-10-25T16:16:42.834Z,1.33
2022-10-25T16:20:17.843Z,1.67
2022-10-25T16:23:41.354Z,1.50
2022-10-25T16:27:05.134Z,1.47
2022-10-25T16:30:34.701Z,1.00
2022-10-25T16:33:58.362Z,1.10
2022-10-25T16:37:22.202Z,1.47
2022-10-25T16:40:45.699Z,1.03
2022-10-25T16:44:11.646Z,1.40
2022-10-25T16:47:36.854Z,1.10
2022-10-25T16:51:00.194Z,1.13
2022-10-25T16:54:24.335Z,1.13
2022-10-25T17:01:22.358Z,1.10
2022-10-25T17:04:48.578Z,1.00
2022-10-25T17:08:11.983Z,1.27
2022-10-25T17:11:36.047Z,1.27
2022-10-25T17:14:59.431Z,1.50
2022-10-25T17:18:26.686Z,1.40
2022-10-25T17:21:51.653Z,1.30
2022-10-25T17:25:15.747Z,1.40
2022-10-25T17:28:43.176Z,1.60
2022-10-25T17:32:07.922Z,1.40
2022-10-25T17:35:31.359Z,1.30
2022-10-25T17:38:56.315Z,1.53
2022-10-25T17:42:20.223Z,1.90
2022-10-25T17:45:45.268Z,1.13
2022-10-25T17:49:08.732Z,1.73
2022-10-25T17:52:32.172Z,1.30
2022-10-25T17:55:57.127Z,1.30
2022-10-25T17:59:20.555Z,1.40
2022-10-25T18:02:50.371Z,1.30
2022-10-25T18:06:17.937Z,1.33
2022-10-25T18:09:41.921Z,1.40
2022-10-25T18:13:06.691Z,1.60
2022-10-25T18:16:31.331Z,1.50
2022-10-25T18:19:54.925Z,1.50
2022-10-25T18:23:18.346Z,1.67
2022-10-25T18:26:41.855Z,1.60
2022-10-25T18:30:08.549Z,1.37
2022-10-25T18:33:34.670Z,1.60
2022-10-25T18:36:58.167Z,1.30
2022-10-25T18:40:22.659Z,1.23
2022-10-25T18:43:47.728Z,1.10
2022-10-25T18:47:12.498Z,1.13
2022-10-25T18:50:40.409Z,1.00
2022-10-25T18:54:06.628Z,1.23
2022-10-25T18:57:31.287Z,1.10
2022-10-25T19:00:54.746Z,1.00
2022-10-25T19:04:19.705Z,1.43
2022-10-25T19:07:43.151Z,2.10
2022-10-25T19:11:09.482Z,2.60
2022-10-25T19:14:33.032Z,2.00
2022-10-25T19:17:56.610Z,2.40
2022-10-25T19:21:21.777Z,2.03
2022-10-25T19:24:45.526Z,2.47
2022-10-25T19:28:10.333Z,2.20
2022-10-25T19:31:33.819Z,2.77
2022-10-25T19:34:58.141Z,2.27
2022-10-25T19:38:23.156Z,2.07
2022-10-25T19:41:46.553Z,1.70
2022-10-25T19:45:10.733Z,2.23
2022-10-25T19:48:35.101Z,2.27
2022-10-25T19:51:58.617Z,2.03
2022-10-25T19:55:23.455Z,2.30
2022-10-25T19:58:47.465Z,1.90
2022-10-25T20:02:11.219Z,1.90
2022-10-25T20:05:34.801Z,1.80
2022-10-25T20:09:00.198Z,1.57
2022-10-25T20:12:25.269Z,1.47
2022-10-25T20:15:51.246Z,1.80
2022-10-25T20:19:15.330Z,1.83
2022-10-25T20:22:40.164Z,2.20
2022-10-25T20:26:13.161Z,1.90
2022-10-25T20:29:38.137Z,1.60
2022-10-25T20:33:01.759Z,1.50
2022-10-25T20:36:26.270Z,1.80
2022-10-25T20:39:49.734Z,1.50
2022-10-25T20:43:13.228Z,1.27
2022-10-25T20:46:38.437Z,1.30
2022-10-25T20:50:01.932Z,1.60
2022-10-25T20:53:25.558Z,1.50
2022-10-25T20:56:48.995Z,1.40
2022-10-25T21:00:17.054Z,1.50
2022-10-25T21:03:44.933Z,1.20
2022-10-25T21:07:08.494Z,1.97
2022-10-25T21:10:32.688Z,1.60
2022-10-25T21:13:56.317Z,1.30
2022-10-25T21:17:19.945Z,1.57
2022-10-25T21:20:45.114Z,1.47
2022-10-25T21:24:11.430Z,1.60
2022-10-25T21:27:35.306Z,1.70
2022-10-25T21:31:02.828Z,1.60
2022-10-25T21:34:26.300Z,1.50
2022-10-25T21:37:52.038Z,1.70
2022-10-25T21:41:19.755Z,1.53
2022-10-25T21:44:43.489Z,1.60
2022-10-25T21:48:08.274Z,1.47
2022-10-25T21:51:32.749Z,1.57
2022-10-25T21:54:57.997Z,1.50
2022-10-25T21:58:21.449Z,1.37
2022-10-25T22:01:45.058Z,1.37
2022-10-25T22:05:09.708Z,1.30
2022-10-25T22:08:33.234Z,1.30
2022-10-25T22:11:58.779Z,1.40
2022-10-25T22:15:22.425Z,1.70
2022-10-25T22:18:52.020Z,1.77
2022-10-25T22:22:15.520Z,1.67
2022-10-25T22:25:38.970Z,1.70
2022-10-25T22:29:05.154Z,1.33
2022-10-25T22:32:28.651Z,1.60
2022-10-25T22:35:52.257Z,1.17
2022-10-25T22:39:16.546Z,1.43
2022-10-25T22:42:40.182Z,1.20
2022-10-25T22:46:07.291Z,1.40
2022-10-25T22:49:30.840Z,1.43
2022-10-25T22:52:54.361Z,1.23
2022-10-25T22:56:21.107Z,1.87
2022-10-25T22:59:44.520Z,1.70
2022-10-25T23:03:09.342Z,1.40
2022-10-25T23:06:36.105Z,1.23
2022-10-25T23:09:59.597Z,1.40
2022-10-25T23:13:23.107Z,1.40
2022-10-25T23:16:46.963Z,1.60
2022-10-25T23:20:12.251Z,1.47
2022-10-25T23:23:39.096Z,1.47
2022-10-25T23:27:02.579Z,1.43
2022-10-25T23:30:28.279Z,1.50
2022-10-25T23:33:53.604Z,1.60
2022-10-25T23:37:18.393Z,1.40
2022-10-25T23:40:50.187Z,1.40
2022-10-25T23:44:14.984Z,1.40
2022-10-25T23:47:41.105Z,1.67
2022-10-25T23:51:08.682Z,1.50
2022-10-25T23:54:33.522Z,1.50
2022-10-25T23:57:58.612Z,1.50
